sensor_id;sensor_type;location;lat;lon;timestamp;P1;durP1;ratioP1;P2;durP2;ratioP2
19193;SDS011;9729;52.296;13.260;2023-02-21T00:01:26;8.63;;;5.70;;
19193;SDS011;9729;52.296;13.260;2023-02-21T00:04:10;7.50;;;5.80;;
19193;SDS011;9729;52.296;13.260;2023-02-21T00:06:54;8.87;;;5.50;;
19193;SDS011;9729;52.296;13.260;2023-02-21T00:09:38;9.90;;;6.70;;
19193;SDS011;9729;52.296;13.260;2023-02-21T00:12:22;9.13;;;5.77;;
19193;SDS011;9729;52.296;13.260;2023-02-21T00:15:08;8.33;;;5.63;;
19193;SDS011;9729;52.296;13.260;2023-02-21T00:17:53;8.77;;;6.53;;
19193;SDS011;9729;52.296;13.260;2023-02-21T00:20:37;10.27;;;5.80;;
19193;SDS011;9729;52.296;13.260;2023-02-21T00:23:21;9.90;;;6.43;;
19193;SDS011;9729;52.296;13.260;2023-02-21T00:26:05;9.63;;;6.20;;
19193;SDS011;9729;52.296;13.260;2023-02-21T00:28:49;8.23;;;6.73;;
19193;SDS011;9729;52.296;13.260;2023-02-21T00:31:34;8.37;;;6.60;;
19193;SDS011;9729;52.296;13.260;2023-02-21T00:34:18;8.67;;;6.60;;
19193;SDS011;9729;52.296;13.260;2023-02-21T00:37:02;10.30;;;6.53;;
19193;SDS011;9729;52.296;13.260;2023-02-21T00:39:46;11.63;;;7.60;;
19193;SDS011;9729;52.296;13.260;2023-02-21T00:42:30;8.53;;;6.87;;
19193;SDS011;9729;52.296;13.260;2023-02-21T00:45:14;9.77;;;6.93;;
19193;SDS011;9729;52.296;13.260;2023-02-21T00:48:00;7.93;;;6.07;;
19193;SDS011;9729;52.296;13.260;2023-02-21T00:50:44;11.03;;;7.30;;
19193;SDS011;9729;52.296;13.260;2023-02-21T00:53:28;9.70;;;6.77;;
19193;SDS011;9729;52.296;13.260;2023-02-21T00:56:12;11.03;;;6.60;;
19193;SDS011;9729;52.296;13.260;2023-02-21T00:58:56;10.10;;;7.60;;
19193;SDS011;9729;52.296;13.260;2023-02-21T01:01:40;10.70;;;7.50;;
19193;SDS011;9729;52.296;13.260;2023-02-21T01:04:25;16.13;;;7.70;;
19193;SDS011;9729;52.296;13.260;2023-02-21T01:07:09;10.90;;;7.63;;
19193;SDS011;9729;52.296;13.260;2023-02-21T01:09:53;11.67;;;8.17;;
19193;SDS011;9729;52.296;13.260;2023-02-21T01:12:37;14.00;;;8.83;;
19193;SDS011;9729;52.296;13.260;2023-02-21T01:15:21;10.87;;;7.63;;
19193;SDS011;9729;52.296;13.260;2023-02-21T01:18:05;16.10;;;9.40;;
19193;SDS011;9729;52.296;13.260;2023-02-21T01:20:50;13.43;;;8.77;;
19193;SDS011;9729;52.296;13.260;2023-02-21T01:23:34;12.73;;;8.47;;
19193;SDS011;9729;52.296;13.260;2023-02-21T01:26:18;12.33;;;8.93;;
19193;SDS011;9729;52.296;13.260;2023-02-21T01:29:02;11.80;;;7.30;;
19193;SDS011;9729;52.296;13.260;2023-02-21T01:31:47;16.53;;;8.90;;
19193;SDS011;9729;52.296;13.260;2023-02-21T01:34:31;14.10;;;8.13;;
19193;SDS011;9729;52.296;13.260;2023-02-21T01:37:16;11.50;;;8.23;;
19193;SDS011;9729;52.296;13.260;2023-02-21T01:40:00;10.77;;;9.07;;
19193;SDS011;9729;52.296;13.260;2023-02-21T01:42:44;12.97;;;8.87;;
19193;SDS011;9729;52.296;13.260;2023-02-21T01:45:37;13.67;;;9.30;;
19193;SDS011;9729;52.296;13.260;2023-02-21T01:48:24;13.73;;;8.70;;
19193;SDS011;9729;52.296;13.260;2023-02-21T01:51:09;13.23;;;8.97;;
19193;SDS011;9729;52.296;13.260;2023-02-21T01:53:57;13.03;;;9.43;;
19193;SDS011;9729;52.296;13.260;2023-02-21T01:56:42;13.07;;;8.63;;
19193;SDS011;9729;52.296;13.260;2023-02-21T01:59:26;13.47;;;9.20;;
19193;SDS011;9729;52.296;13.260;2023-02-21T02:02:12;14.87;;;9.30;;
19193;SDS011;9729;52.296;13.260;2023-02-21T02:04:59;16.67;;;9.73;;
19193;SDS011;9729;52.296;13.260;2023-02-21T02:07:43;17.97;;;10.13;;
19193;SDS011;9729;52.296;13.260;2023-02-21T02:10:28;14.67;;;9.30;;
19193;SDS011;9729;52.296;13.260;2023-02-21T02:13:18;14.13;;;9.87;;
19193;SDS011;9729;52.296;13.260;2023-02-21T02:16:01;15.07;;;9.47;;
19193;SDS011;9729;52.296;13.260;2023-02-21T02:18:34;15.13;;;9.70;;
19193;SDS011;9729;52.296;13.260;2023-02-21T02:24:36;12.73;;;8.93;;
19193;SDS011;9729;52.296;13.260;2023-02-21T02:33:11;12.93;;;9.27;;
19193;SDS011;9729;52.296;13.260;2023-02-21T02:35:56;14.97;;;9.00;;
19193;SDS011;9729;52.296;13.260;2023-02-21T02:38:25;14.17;;;8.57;;
19193;SDS011;9729;52.296;13.260;2023-02-21T02:40:57;13.80;;;8.17;;
19193;SDS011;9729;52.296;13.260;2023-02-21T02:43:26;16.77;;;10.23;;
19193;SDS011;9729;52.296;13.260;2023-02-21T02:46:00;12.67;;;8.90;;
19193;SDS011;9729;52.296;13.260;2023-02-21T02:48:34;13.83;;;9.37;;
19193;SDS011;9729;52.296;13.260;2023-02-21T02:51:05;12.07;;;8.87;;
19193;SDS011;9729;52.296;13.260;2023-02-21T02:53:33;15.07;;;9.33;;
19193;SDS011;9729;52.296;13.260;2023-02-21T02:56:00;13.43;;;8.67;;
19193;SDS011;9729;52.296;13.260;2023-02-21T02:58:28;13.70;;;9.47;;
19193;SDS011;9729;52.296;13.260;2023-02-21T03:01:02;18.23;;;10.00;;
19193;SDS011;9729;52.296;13.260;2023-02-21T03:03:41;14.27;;;9.20;;
19193;SDS011;9729;52.296;13.260;2023-02-21T03:06:27;15.23;;;9.83;;
19193;SDS011;9729;52.296;13.260;2023-02-21T03:09:01;15.53;;;9.47;;
19193;SDS011;9729;52.296;13.260;2023-02-21T03:11:32;11.73;;;8.77;;
19193;SDS011;9729;52.296;13.260;2023-02-21T03:14:01;13.70;;;8.77;;
19193;SDS011;9729;52.296;13.260;2023-02-21T03:16:33;15.93;;;9.37;;
19193;SDS011;9729;52.296;13.260;2023-02-21T03:19:02;16.20;;;10.37;;
19193;SDS011;9729;52.296;13.260;2023-02-21T03:21:34;15.10;;;9.63;;
19193;SDS011;9729;52.296;13.260;2023-02-21T03:24:05;13.80;;;9.00;;
19193;SDS011;9729;52.296;13.260;2023-02-21T03:26:34;15.00;;;9.60;;
19193;SDS011;9729;52.296;13.260;2023-02-21T03:29:01;14.33;;;9.40;;
19193;SDS011;9729;52.296;13.260;2023-02-21T03:31:29;14.60;;;9.97;;
19193;SDS011;9729;52.296;13.260;2023-02-21T03:33:57;15.00;;;10.00;;
19193;SDS011;9729;52.296;13.260;2023-02-21T03:36:25;16.03;;;10.07;;
19193;SDS011;9729;52.296;13.260;2023-02-21T03:38:53;15.70;;;9.73;;
19193;SDS011;9729;52.296;13.260;2023-02-21T03:41:20;16.20;;;10.43;;
19193;SDS011;9729;52.296;13.260;2023-02-21T03:43:46;15.13;;;10.13;;
19193;SDS011;9729;52.296;13.260;2023-02-21T03:46:12;18.23;;;11.13;;
19193;SDS011;9729;52.296;13.260;2023-02-21T03:48:39;16.40;;;10.23;;
19193;SDS011;9729;52.296;13.260;2023-02-21T03:51:05;16.57;;;10.53;;
19193;SDS011;9729;52.296;13.260;2023-02-21T03:53:32;15.90;;;10.33;;
19193;SDS011;9729;52.296;13.260;2023-02-21T03:56:00;15.70;;;10.30;;
19193;SDS011;9729;52.296;13.260;2023-02-21T03:58:28;16.40;;;10.23;;
19193;SDS011;9729;52.296;13.260;2023-02-21T04:00:54;16.33;;;10.20;;
19193;SDS011;9729;52.296;13.260;2023-02-21T04:03:21;20.27;;;10.90;;
19193;SDS011;9729;52.296;13.260;2023-02-21T04:05:48;18.47;;;11.87;;
19193;SDS011;9729;52.296;13.260;2023-02-21T04:08:14;16.73;;;10.27;;
19193;SDS011;9729;52.296;13.260;2023-02-21T04:10:41;20.13;;;12.80;;
19193;SDS011;9729;52.296;13.260;2023-02-21T04:13:08;16.37;;;10.90;;
19193;SDS011;9729;52.296;13.260;2023-02-21T04:15:35;17.67;;;11.70;;
19193;SDS011;9729;52.296;13.260;2023-02-21T04:18:01;19.83;;;11.27;;
19193;SDS011;9729;52.296;13.260;2023-02-21T04:20:28;19.63;;;12.07;;
19193;SDS011;9729;52.296;13.260;2023-02-21T04:22:54;18.87;;;11.67;;
19193;SDS011;9729;52.296;13.260;2023-02-21T04:25:21;17.40;;;11.20;;
19193;SDS011;9729;52.296;13.260;2023-02-21T04:27:47;19.30;;;11.30;;
19193;SDS011;9729;52.296;13.260;2023-02-21T04:30:17;20.60;;;11.97;;
19193;SDS011;9729;52.296;13.260;2023-02-21T04:32:43;21.33;;;13.30;;
19193;SDS011;9729;52.296;13.260;2023-02-21T04:35:10;21.03;;;12.67;;
19193;SDS011;9729;52.296;13.260;2023-02-21T04:37:36;17.70;;;10.90;;
19193;SDS011;9729;52.296;13.260;2023-02-21T04:40:03;16.63;;;10.87;;
19193;SDS011;9729;52.296;13.260;2023-02-21T04:42:29;18.30;;;10.73;;
19193;SDS011;9729;52.296;13.260;2023-02-21T04:44:56;20.90;;;13.37;;
19193;SDS011;9729;52.296;13.260;2023-02-21T04:47:23;18.77;;;11.87;;
19193;SDS011;9729;52.296;13.260;2023-02-21T04:49:50;20.13;;;12.20;;
19193;SDS011;9729;52.296;13.260;2023-02-21T04:52:16;18.20;;;11.53;;
19193;SDS011;9729;52.296;13.260;2023-02-21T04:54:45;17.73;;;11.43;;
19193;SDS011;9729;52.296;13.260;2023-02-21T04:57:12;23.13;;;12.50;;
19193;SDS011;9729;52.296;13.260;2023-02-21T04:59:38;18.80;;;11.17;;
19193;SDS011;9729;52.296;13.260;2023-02-21T05:02:05;16.63;;;10.87;;
19193;SDS011;9729;52.296;13.260;2023-02-21T05:04:34;19.03;;;10.90;;
19193;SDS011;9729;52.296;13.260;2023-02-21T05:07:00;19.13;;;10.90;;
19193;SDS011;9729;52.296;13.260;2023-02-21T05:09:27;18.47;;;11.00;;
19193;SDS011;9729;52.296;13.260;2023-02-21T05:11:53;18.60;;;11.57;;
19193;SDS011;9729;52.296;13.260;2023-02-21T05:14:19;17.37;;;10.60;;
19193;SDS011;9729;52.296;13.260;2023-02-21T05:16:46;16.37;;;9.87;;
19193;SDS011;9729;52.296;13.260;2023-02-21T05:19:12;17.97;;;11.30;;
19193;SDS011;9729;52.296;13.260;2023-02-21T05:21:52;17.10;;;10.53;;
19193;SDS011;9729;52.296;13.260;2023-02-21T05:24:20;15.50;;;10.60;;
19193;SDS011;9729;52.296;13.260;2023-02-21T05:26:46;18.67;;;10.77;;
19193;SDS011;9729;52.296;13.260;2023-02-21T05:29:12;17.67;;;11.10;;
19193;SDS011;9729;52.296;13.260;2023-02-21T05:31:39;17.50;;;11.13;;
19193;SDS011;9729;52.296;13.260;2023-02-21T05:34:05;15.43;;;10.27;;
19193;SDS011;9729;52.296;13.260;2023-02-21T05:36:32;17.70;;;11.03;;
19193;SDS011;9729;52.296;13.260;2023-02-21T05:39:00;17.37;;;10.30;;
19193;SDS011;9729;52.296;13.260;2023-02-21T05:41:28;19.83;;;11.20;;
19193;SDS011;9729;52.296;13.260;2023-02-21T05:43:55;17.13;;;11.17;;
19193;SDS011;9729;52.296;13.260;2023-02-21T05:46:22;20.07;;;11.47;;
19193;SDS011;9729;52.296;13.260;2023-02-21T05:48:50;18.80;;;11.53;;
19193;SDS011;9729;52.296;13.260;2023-02-21T05:51:17;21.13;;;11.70;;
19193;SDS011;9729;52.296;13.260;2023-02-21T05:53:44;18.67;;;11.77;;
19193;SDS011;9729;52.296;13.260;2023-02-21T05:56:12;20.83;;;12.00;;
19193;SDS011;9729;52.296;13.260;2023-02-21T05:58:39;20.47;;;13.00;;
19193;SDS011;9729;52.296;13.260;2023-02-21T06:01:08;21.03;;;12.03;;
19193;SDS011;9729;52.296;13.260;2023-02-21T06:03:35;18.73;;;10.33;;
19193;SDS011;9729;52.296;13.260;2023-02-21T06:06:01;19.83;;;11.53;;
19193;SDS011;9729;52.296;13.260;2023-02-21T06:08:28;18.90;;;11.40;;
19193;SDS011;9729;52.296;13.260;2023-02-21T06:10:54;17.33;;;11.17;;
19193;SDS011;9729;52.296;13.260;2023-02-21T06:13:22;20.27;;;11.30;;
19193;SDS011;9729;52.296;13.260;2023-02-21T06:15:48;19.60;;;11.40;;
19193;SDS011;9729;52.296;13.260;2023-02-21T06:18:15;18.27;;;11.10;;
19193;SDS011;9729;52.296;13.260;2023-02-21T06:20:42;23.17;;;12.73;;
19193;SDS011;9729;52.296;13.260;2023-02-21T06:23:11;23.60;;;11.60;;
19193;SDS011;9729;52.296;13.260;2023-02-21T06:25:37;21.87;;;12.40;;
19193;SDS011;9729;52.296;13.260;2023-02-21T06:28:04;21.47;;;12.50;;
19193;SDS011;9729;52.296;13.260;2023-02-21T06:30:32;21.27;;;12.07;;
19193;SDS011;9729;52.296;13.260;2023-02-21T06:32:58;20.90;;;12.27;;
19193;SDS011;9729;52.296;13.260;2023-02-21T06:35:25;17.90;;;12.07;;
19193;SDS011;9729;52.296;13.260;2023-02-21T06:37:51;23.43;;;12.50;;
19193;SDS011;9729;52.296;13.260;2023-02-21T06:40:18;21.73;;;11.63;;
19193;SDS011;9729;52.296;13.260;2023-02-21T06:42:45;18.00;;;11.93;;
19193;SDS011;9729;52.296;13.260;2023-02-21T06:45:11;16.93;;;11.17;;
19193;SDS011;9729;52.296;13.260;2023-02-21T06:47:40;15.73;;;10.20;;
19193;SDS011;9729;52.296;13.260;2023-02-21T06:50:07;17.57;;;10.07;;
19193;SDS011;9729;52.296;13.260;2023-02-21T06:52:33;18.07;;;9.70;;
19193;SDS011;9729;52.296;13.260;2023-02-21T06:55:00;16.67;;;10.30;;
19193;SDS011;9729;52.296;13.260;2023-02-21T06:57:27;16.50;;;10.40;;
19193;SDS011;9729;52.296;13.260;2023-02-21T06:59:53;16.30;;;9.20;;
19193;SDS011;9729;52.296;13.260;2023-02-21T07:02:20;15.80;;;10.00;;
19193;SDS011;9729;52.296;13.260;2023-02-21T07:04:47;15.37;;;9.87;;
19193;SDS011;9729;52.296;13.260;2023-02-21T07:07:14;16.30;;;9.40;;
19193;SDS011;9729;52.296;13.260;2023-02-21T07:09:41;14.97;;;10.07;;
19193;SDS011;9729;52.296;13.260;2023-02-21T07:12:07;16.63;;;10.43;;
19193;SDS011;9729;52.296;13.260;2023-02-21T07:14:34;14.80;;;8.97;;
19193;SDS011;9729;52.296;13.260;2023-02-21T07:17:00;17.57;;;10.63;;
19193;SDS011;9729;52.296;13.260;2023-02-21T07:19:27;17.63;;;10.20;;
19193;SDS011;9729;52.296;13.260;2023-02-21T07:21:55;17.17;;;10.70;;
19193;SDS011;9729;52.296;13.260;2023-02-21T07:24:23;22.50;;;11.20;;
19193;SDS011;9729;52.296;13.260;2023-02-21T07:26:50;21.13;;;11.57;;
19193;SDS011;9729;52.296;13.260;2023-02-21T07:29:16;21.17;;;12.33;;
19193;SDS011;9729;52.296;13.260;2023-02-21T07:31:43;21.77;;;12.07;;
19193;SDS011;9729;52.296;13.260;2023-02-21T07:34:09;22.20;;;13.00;;
19193;SDS011;9729;52.296;13.260;2023-02-21T07:36:37;25.33;;;12.33;;
19193;SDS011;9729;52.296;13.260;2023-02-21T07:39:05;24.57;;;12.33;;
19193;SDS011;9729;52.296;13.260;2023-02-21T07:41:31;26.00;;;13.60;;
19193;SDS011;9729;52.296;13.260;2023-02-21T07:43:58;26.57;;;12.93;;
19193;SDS011;9729;52.296;13.260;2023-02-21T07:46:25;23.83;;;12.57;;
19193;SDS011;9729;52.296;13.260;2023-02-21T07:48:54;24.23;;;12.20;;
19193;SDS011;9729;52.296;13.260;2023-02-21T07:51:20;24.63;;;12.53;;
19193;SDS011;9729;52.296;13.260;2023-02-21T07:53:47;21.07;;;11.40;;
19193;SDS011;9729;52.296;13.260;2023-02-21T07:56:14;25.03;;;13.53;;
19193;SDS011;9729;52.296;13.260;2023-02-21T07:58:41;22.50;;;11.00;;
19193;SDS011;9729;52.296;13.260;2023-02-21T08:01:07;21.53;;;11.10;;
19193;SDS011;9729;52.296;13.260;2023-02-21T08:03:35;19.83;;;10.97;;
19193;SDS011;9729;52.296;13.260;2023-02-21T08:06:02;24.13;;;11.23;;
19193;SDS011;9729;52.296;13.260;2023-02-21T08:08:31;22.33;;;12.00;;
19193;SDS011;9729;52.296;13.260;2023-02-21T08:10:58;20.23;;;11.83;;
19193;SDS011;9729;52.296;13.260;2023-02-21T08:13:25;22.87;;;10.80;;
19193;SDS011;9729;52.296;13.260;2023-02-21T08:15:52;26.17;;;12.37;;
19193;SDS011;9729;52.296;13.260;2023-02-21T08:18:19;20.37;;;10.63;;
19193;SDS011;9729;52.296;13.260;2023-02-21T08:20:48;19.63;;;10.60;;
19193;SDS011;9729;52.296;13.260;2023-02-21T08:23:15;26.60;;;12.70;;
19193;SDS011;9729;52.296;13.260;2023-02-21T08:25:43;30.17;;;13.13;;
19193;SDS011;9729;52.296;13.260;2023-02-21T08:28:09;27.77;;;11.77;;
19193;SDS011;9729;52.296;13.260;2023-02-21T08:30:37;25.93;;;11.30;;
19193;SDS011;9729;52.296;13.260;2023-02-21T08:33:04;21.17;;;10.63;;
19193;SDS011;9729;52.296;13.260;2023-02-21T08:35:30;23.10;;;9.83;;
19193;SDS011;9729;52.296;13.260;2023-02-21T08:37:57;21.33;;;10.47;;
19193;SDS011;9729;52.296;13.260;2023-02-21T08:40:27;19.40;;;9.60;;
19193;SDS011;9729;52.296;13.260;2023-02-21T08:42:56;15.27;;;7.43;;
19193;SDS011;9729;52.296;13.260;2023-02-21T08:45:23;13.53;;;7.70;;
19193;SDS011;9729;52.296;13.260;2023-02-21T08:47:52;20.23;;;8.07;;
19193;SDS011;9729;52.296;13.260;2023-02-21T08:50:19;16.00;;;9.13;;
19193;SDS011;9729;52.296;13.260;2023-02-21T08:52:47;20.33;;;9.30;;
19193;SDS011;9729;52.296;13.260;2023-02-21T08:55:14;18.40;;;8.50;;
19193;SDS011;9729;52.296;13.260;2023-02-21T08:57:41;8.77;;;5.43;;
19193;SDS011;9729;52.296;13.260;2023-02-21T09:00:08;14.57;;;6.37;;
19193;SDS011;9729;52.296;13.260;2023-02-21T09:02:37;14.17;;;6.40;;
19193;SDS011;9729;52.296;13.260;2023-02-21T09:05:06;13.13;;;6.77;;
19193;SDS011;9729;52.296;13.260;2023-02-21T09:07:33;13.00;;;5.83;;
19193;SDS011;9729;52.296;13.260;2023-02-21T09:10:00;8.20;;;4.70;;
19193;SDS011;9729;52.296;13.260;2023-02-21T09:12:27;5.93;;;3.17;;
19193;SDS011;9729;52.296;13.260;2023-02-21T09:14:53;6.63;;;3.53;;
19193;SDS011;9729;52.296;13.260;2023-02-21T09:17:19;4.20;;;2.60;;
19193;SDS011;9729;52.296;13.260;2023-02-21T09:19:46;3.70;;;2.57;;
19193;SDS011;9729;52.296;13.260;2023-02-21T09:22:14;5.00;;;2.87;;
19193;SDS011;9729;52.296;13.260;2023-02-21T09:24:41;3.23;;;2.10;;
19193;SDS011;9729;52.296;13.260;2023-02-21T09:27:08;5.80;;;2.07;;
19193;SDS011;9729;52.296;13.260;2023-02-21T09:29:35;7.37;;;1.53;;
19193;SDS011;9729;52.296;13.260;2023-02-21T09:32:02;1.73;;;1.37;;
19193;SDS011;9729;52.296;13.260;2023-02-21T09:34:29;4.57;;;1.23;;
19193;SDS011;9729;52.296;13.260;2023-02-21T09:36:56;2.20;;;1.33;;
19193;SDS011;9729;52.296;13.260;2023-02-21T09:39:25;2.60;;;1.07;;
19193;SDS011;9729;52.296;13.260;2023-02-21T09:41:53;2.23;;;1.10;;
19193;SDS011;9729;52.296;13.260;2023-02-21T09:44:22;15.47;;;1.43;;
19193;SDS011;9729;52.296;13.260;2023-02-21T09:46:53;3.37;;;1.40;;
19193;SDS011;9729;52.296;13.260;2023-02-21T09:49:22;1.40;;;1.10;;
19193;SDS011;9729;52.296;13.260;2023-02-21T09:51:51;4.73;;;1.33;;
19193;SDS011;9729;52.296;13.260;2023-02-21T09:54:22;4.43;;;1.20;;
19193;SDS011;9729;52.296;13.260;2023-02-21T09:56:51;5.43;;;1.73;;
19193;SDS011;9729;52.296;13.260;2023-02-21T09:59:20;4.83;;;1.70;;
19193;SDS011;9729;52.296;13.260;2023-02-21T10:01:50;1.57;;;1.07;;
19193;SDS011;9729;52.296;13.260;2023-02-21T10:04:26;2.27;;;1.03;;
19193;SDS011;9729;52.296;13.260;2023-02-21T10:07:01;1.90;;;1.30;;
19193;SDS011;9729;52.296;13.260;2023-02-21T10:09:35;4.00;;;1.37;;
19193;SDS011;9729;52.296;13.260;2023-02-21T10:12:10;1.10;;;1.00;;
19193;SDS011;9729;52.296;13.260;2023-02-21T10:14:52;1.47;;;1.07;;
19193;SDS011;9729;52.296;13.260;2023-02-21T10:17:30;3.30;;;0.93;;
19193;SDS011;9729;52.296;13.260;2023-02-21T10:19:59;2.30;;;0.93;;
19193;SDS011;9729;52.296;13.260;2023-02-21T10:22:30;1.43;;;0.77;;
19193;SDS011;9729;52.296;13.260;2023-02-21T10:25:11;2.87;;;1.00;;
19193;SDS011;9729;52.296;13.260;2023-02-21T10:27:46;1.70;;;0.80;;
19193;SDS011;9729;52.296;13.260;2023-02-21T10:30:17;1.73;;;0.77;;
19193;SDS011;9729;52.296;13.260;2023-02-21T10:32:51;3.07;;;1.00;;
19193;SDS011;9729;52.296;13.260;2023-02-21T10:35:19;0.73;;;0.73;;
19193;SDS011;9729;52.296;13.260;2023-02-21T10:37:50;1.97;;;0.90;;
19193;SDS011;9729;52.296;13.260;2023-02-21T10:40:31;2.87;;;0.70;;
19193;SDS011;9729;52.296;13.260;2023-02-21T10:43:08;2.33;;;0.70;;
19193;SDS011;9729;52.296;13.260;2023-02-21T10:45:44;2.23;;;0.90;;
19193;SDS011;9729;52.296;13.260;2023-02-21T10:48:17;3.80;;;0.90;;
19193;SDS011;9729;52.296;13.260;2023-02-21T10:50:49;3.70;;;0.67;;
19193;SDS011;9729;52.296;13.260;2023-02-21T10:53:27;2.40;;;0.60;;
19193;SDS011;9729;52.296;13.260;2023-02-21T10:56:06;2.70;;;0.80;;
19193;SDS011;9729;52.296;13.260;2023-02-21T10:58:35;1.17;;;0.50;;
19193;SDS011;9729;52.296;13.260;2023-02-21T11:01:09;0.57;;;0.57;;
19193;SDS011;9729;52.296;13.260;2023-02-21T11:03:41;1.60;;;0.70;;
19193;SDS011;9729;52.296;13.260;2023-02-21T11:06:08;2.30;;;0.60;;
19193;SDS011;9729;52.296;13.260;2023-02-21T11:08:36;2.57;;;0.97;;
19193;SDS011;9729;52.296;13.260;2023-02-21T11:11:08;1.73;;;0.90;;
19193;SDS011;9729;52.296;13.260;2023-02-21T11:13:35;1.80;;;0.83;;
19193;SDS011;9729;52.296;13.260;2023-02-21T11:16:06;2.90;;;0.87;;
19193;SDS011;9729;52.296;13.260;2023-02-21T11:18:35;3.53;;;0.73;;
19193;SDS011;9729;52.296;13.260;2023-02-21T11:21:09;3.33;;;0.77;;
19193;SDS011;9729;52.296;13.260;2023-02-21T11:23:36;3.07;;;0.90;;
19193;SDS011;9729;52.296;13.260;2023-02-21T11:29:09;3.03;;;1.00;;
19193;SDS011;9729;52.296;13.260;2023-02-21T11:31:38;2.03;;;1.00;;
19193;SDS011;9729;52.296;13.260;2023-02-21T11:34:07;1.13;;;0.90;;
19193;SDS011;9729;52.296;13.260;2023-02-21T11:36:39;4.23;;;0.93;;
19193;SDS011;9729;52.296;13.260;2023-02-21T11:39:13;1.23;;;0.83;;
19193;SDS011;9729;52.296;13.260;2023-02-21T11:41:47;2.27;;;1.17;;
19193;SDS011;9729;52.296;13.260;2023-02-21T11:44:23;3.63;;;1.00;;
19193;SDS011;9729;52.296;13.260;2023-02-21T11:46:57;3.87;;;1.60;;
19193;SDS011;9729;52.296;13.260;2023-02-21T11:49:33;1.67;;;0.80;;
19193;SDS011;9729;52.296;13.260;2023-02-21T11:52:05;3.37;;;1.20;;
19193;SDS011;9729;52.296;13.260;2023-02-21T11:54:34;3.70;;;0.90;;
19193;SDS011;9729;52.296;13.260;2023-02-21T11:57:03;4.80;;;1.00;;
19193;SDS011;9729;52.296;13.260;2023-02-21T11:59:37;2.97;;;0.80;;
19193;SDS011;9729;52.296;13.260;2023-02-21T12:02:18;4.60;;;1.20;;
19193;SDS011;9729;52.296;13.260;2023-02-21T12:05:02;2.87;;;1.13;;
19193;SDS011;9729;52.296;13.260;2023-02-21T12:07:36;2.37;;;0.77;;
19193;SDS011;9729;52.296;13.260;2023-02-21T12:10:08;3.20;;;0.80;;
19193;SDS011;9729;52.296;13.260;2023-02-21T12:12:51;1.70;;;1.00;;
19193;SDS011;9729;52.296;13.260;2023-02-21T12:15:21;4.10;;;0.70;;
19193;SDS011;9729;52.296;13.260;2023-02-21T12:17:56;3.33;;;1.10;;
19193;SDS011;9729;52.296;13.260;2023-02-21T12:20:39;0.97;;;0.63;;
19193;SDS011;9729;52.296;13.260;2023-02-21T12:23:15;3.97;;;0.90;;
19193;SDS011;9729;52.296;13.260;2023-02-21T12:25:51;6.40;;;1.00;;
19193;SDS011;9729;52.296;13.260;2023-02-21T12:28:32;5.13;;;1.00;;
19193;SDS011;9729;52.296;13.260;2023-02-21T12:31:16;2.77;;;0.80;;
19193;SDS011;9729;52.296;13.260;2023-02-21T12:33:50;2.03;;;0.70;;
19193;SDS011;9729;52.296;13.260;2023-02-21T12:36:26;0.43;;;0.43;;
19193;SDS011;9729;52.296;13.260;2023-02-21T12:39:12;3.13;;;0.90;;
19193;SDS011;9729;52.296;13.260;2023-02-21T12:42:09;1.73;;;0.90;;
19193;SDS011;9729;52.296;13.260;2023-02-21T12:44:50;3.30;;;1.27;;
19193;SDS011;9729;52.296;13.260;2023-02-21T12:47:22;2.77;;;1.30;;
19193;SDS011;9729;52.296;13.260;2023-02-21T12:49:53;2.03;;;0.80;;
19193;SDS011;9729;52.296;13.260;2023-02-21T12:52:25;4.40;;;1.20;;
19193;SDS011;9729;52.296;13.260;2023-02-21T12:54:54;3.90;;;1.00;;
19193;SDS011;9729;52.296;13.260;2023-02-21T12:57:27;2.23;;;0.90;;
19193;SDS011;9729;52.296;13.260;2023-02-21T13:00:04;2.50;;;0.83;;
19193;SDS011;9729;52.296;13.260;2023-02-21T13:02:42;3.33;;;1.47;;
19193;SDS011;9729;52.296;13.260;2023-02-21T13:05:15;2.43;;;0.80;;
19193;SDS011;9729;52.296;13.260;2023-02-21T13:07:44;6.80;;;1.37;;
19193;SDS011;9729;52.296;13.260;2023-02-21T13:10:14;3.43;;;1.10;;
19193;SDS011;9729;52.296;13.260;2023-02-21T13:12:48;1.87;;;0.80;;
19193;SDS011;9729;52.296;13.260;2023-02-21T13:15:19;5.60;;;0.70;;
19193;SDS011;9729;52.296;13.260;2023-02-21T13:17:49;5.97;;;1.77;;
19193;SDS011;9729;52.296;13.260;2023-02-21T13:20:20;2.43;;;0.70;;
19193;SDS011;9729;52.296;13.260;2023-02-21T13:22:47;5.00;;;1.13;;
19193;SDS011;9729;52.296;13.260;2023-02-21T13:25:17;3.90;;;0.77;;
19193;SDS011;9729;52.296;13.260;2023-02-21T13:27:52;1.63;;;0.83;;
19193;SDS011;9729;52.296;13.260;2023-02-21T13:30:24;4.70;;;1.23;;
19193;SDS011;9729;52.296;13.260;2023-02-21T13:32:54;1.43;;;0.97;;
19193;SDS011;9729;52.296;13.260;2023-02-21T13:35:24;1.53;;;0.90;;
19193;SDS011;9729;52.296;13.260;2023-02-21T13:37:54;2.93;;;1.20;;
19193;SDS011;9729;52.296;13.260;2023-02-21T13:40:21;2.40;;;0.90;;
19193;SDS011;9729;52.296;13.260;2023-02-21T13:42:57;3.80;;;1.07;;
19193;SDS011;9729;52.296;13.260;2023-02-21T13:45:28;1.73;;;0.80;;
19193;SDS011;9729;52.296;13.260;2023-02-21T13:48:09;1.43;;;0.60;;
19193;SDS011;9729;52.296;13.260;2023-02-21T13:50:57;5.30;;;0.60;;
19193;SDS011;9729;52.296;13.260;2023-02-21T13:53:25;2.13;;;0.60;;
19193;SDS011;9729;52.296;13.260;2023-02-21T13:56:12;1.60;;;0.73;;
19193;SDS011;9729;52.296;13.260;2023-02-21T13:58:43;1.93;;;0.60;;
19193;SDS011;9729;52.296;13.260;2023-02-21T14:01:14;4.30;;;1.00;;
19193;SDS011;9729;52.296;13.260;2023-02-21T14:03:46;3.53;;;0.90;;
19193;SDS011;9729;52.296;13.260;2023-02-21T14:06:18;2.47;;;0.77;;
19193;SDS011;9729;52.296;13.260;2023-02-21T14:11:46;3.97;;;0.80;;
19193;SDS011;9729;52.296;13.260;2023-02-21T14:14:18;5.60;;;0.90;;
19193;SDS011;9729;52.296;13.260;2023-02-21T14:16:59;4.87;;;1.17;;
19193;SDS011;9729;52.296;13.260;2023-02-21T14:19:30;6.57;;;1.93;;
19193;SDS011;9729;52.296;13.260;2023-02-21T14:22:02;4.17;;;1.23;;
19193;SDS011;9729;52.296;13.260;2023-02-21T14:24:31;1.87;;;1.00;;
19193;SDS011;9729;52.296;13.260;2023-02-21T14:27:02;6.70;;;1.00;;
19193;SDS011;9729;52.296;13.260;2023-02-21T14:29:36;2.50;;;1.23;;
19193;SDS011;9729;52.296;13.260;2023-02-21T14:34:58;1.90;;;0.90;;
19193;SDS011;9729;52.296;13.260;2023-02-21T14:37:33;2.13;;;0.80;;
19193;SDS011;9729;52.296;13.260;2023-02-21T14:40:14;5.60;;;0.70;;
19193;SDS011;9729;52.296;13.260;2023-02-21T14:42:50;2.97;;;0.80;;
19193;SDS011;9729;52.296;13.260;2023-02-21T14:45:22;1.70;;;0.60;;
19193;SDS011;9729;52.296;13.260;2023-02-21T14:47:59;2.07;;;0.90;;
19193;SDS011;9729;52.296;13.260;2023-02-21T14:50:33;0.43;;;0.40;;
19193;SDS011;9729;52.296;13.260;2023-02-21T14:58:58;2.93;;;0.53;;
19193;SDS011;9729;52.296;13.260;2023-02-21T15:01:42;2.37;;;0.47;;
19193;SDS011;9729;52.296;13.260;2023-02-21T15:04:18;1.00;;;0.53;;
19193;SDS011;9729;52.296;13.260;2023-02-21T15:06:52;1.17;;;0.70;;
19193;SDS011;9729;52.296;13.260;2023-02-21T15:09:24;3.87;;;0.90;;
19193;SDS011;9729;52.296;13.260;2023-02-21T15:11:51;3.57;;;0.80;;
19193;SDS011;9729;52.296;13.260;2023-02-21T15:14:18;1.70;;;0.70;;
19193;SDS011;9729;52.296;13.260;2023-02-21T15:16:48;3.37;;;1.00;;
19193;SDS011;9729;52.296;13.260;2023-02-21T15:19:20;0.60;;;0.57;;
19193;SDS011;9729;52.296;13.260;2023-02-21T15:25:11;1.20;;;0.90;;
19193;SDS011;9729;52.296;13.260;2023-02-21T15:30:57;1.30;;;0.60;;
19193;SDS011;9729;52.296;13.260;2023-02-21T15:33:29;1.50;;;0.63;;
19193;SDS011;9729;52.296;13.260;2023-02-21T15:35:59;3.10;;;1.70;;